Time;durP1;ratioP1;P1;durP2;ratioP2;P2;SDS_P1;SDS_P2;PMS_P1;PMS_P2;Temp;Humidity;BMP_temperature;BMP_pressure;BME280_temperature;BME280_humidity;BME280_pressure;Samples;Min_cycle;Max_cycle;Signal;HPM_P1;HPM_P2
2023/01/06 00:01:31;;;;;;;194.38;113.10;;;4.30;99.90;;;;;;4951197;29;20051;-77
2023/01/06 00:04:28;;;;;;;;;;;;;;;;;;;;;
2023/01/06 00:08:08;;;;;;;174.75;109.07;;;4.20;99.90;;;;;;4943259;29;20153;-78
2023/01/06 00:13:58;;;;;;;185.45;112.55;;;4.30;99.90;;;;;;5587615;23;20047;-80
2023/01/06 00:16:42;;;;;;;192.90;122.68;;;4.20;99.90;;;;;;4926382;29;20094;-79
2023/01/06 00:21:05;;;;;;;;;;;;;;;;;;;;;
2023/01/06 00:37:20;;;;;;;106.50;65.70;;;3.80;99.90;;;;;;4804140;29;20061;-79
2023/01/06 00:49:54;;;;;;;104.70;66.55;;;3.60;99.90;;;;;;5509237;23;20055;-76
2023/01/06 00:53:04;;;;;;;118.35;70.10;;;3.70;99.90;;;;;;4921215;29;20124;-78
2023/01/06 00:55:39;;;;;;;129.05;75.68;;;3.70;99.90;;;;;;4928828;29;20052;-78
2023/01/06 00:58:08;;;;;;;122.13;73.47;;;3.60;99.90;;;;;;4929106;29;20126;-79
2023/01/06 01:02:06;;;;;;;123.97;75.33;;;3.50;99.90;;;;;;4916242;29;20052;-77
2023/01/06 01:05:02;;;;;;;129.48;76.70;;;3.50;99.90;;;;;;5303732;23;20102;-78
2023/01/06 01:07:30;;;;;;;;;;;3.70;99.90;;;;;;4936678;28;20482;-78
2023/01/06 01:09:59;;;;;;;121.50;68.65;;;3.80;99.90;;;;;;4965971;28;20008;-78
2023/01/06 01:12:29;;;;;;;111.03;65.43;;;3.80;99.90;;;;;;4935165;28;20047;-78
2023/01/06 01:14:58;;;;;;;103.25;61.85;;;3.70;99.90;;;;;;4967469;28;20039;-79
2023/01/06 01:21:10;;;;;;;106.28;63.50;;;3.60;99.90;;;;;;4883314;29;20421;-78
2023/01/06 01:23:37;;;;;;;103.25;62.92;;;3.70;99.90;;;;;;4900434;28;20085;-76
2023/01/06 01:28:53;;;;;;;97.47;58.70;;;3.40;99.90;;;;;;5980201;23;19921;-79
2023/01/06 01:31:21;;;;;;;99.38;58.55;;;3.30;99.90;;;;;;4905540;29;20062;-79
2023/01/06 01:44:02;;;;;;;108.70;66.57;;;3.40;99.90;;;;;;5082134;23;20075;-77
2023/01/06 01:46:37;;;;;;;116.88;68.90;;;3.30;99.90;;;;;;4906542;29;20047;-77
2023/01/06 01:49:19;;;;;;;121.28;73.60;;;3.40;99.90;;;;;;4904568;29;20078;-79
2023/01/06 01:51:52;;;;;;;124.07;69.75;;;3.40;99.90;;;;;;4887955;29;20084;-79
2023/01/06 01:55:10;;;;;;;117.05;71.03;;;3.50;99.90;;;;;;4826079;29;20557;-80
2023/01/06 01:57:48;;;;;;;123.80;73.32;;;3.50;99.90;;;;;;4825554;29;20614;-78
2023/01/06 02:00:18;;;;;;;116.72;73.97;;;3.60;99.90;;;;;;4825308;29;20053;-77
2023/01/06 02:06:56;;;;;;;117.30;71.72;;;3.40;99.90;;;;;;4788264;30;20046;-80
2023/01/06 02:10:03;;;;;;;114.45;71.93;;;2.90;99.90;;;;;;4822940;29;20444;-81
2023/01/06 02:21:37;;;;;;;114.32;70.90;;;3.40;99.90;;;;;;4789493;30;20059;-78
2023/01/06 02:24:21;;;;;;;124.40;74.60;;;3.50;99.90;;;;;;4729106;30;20047;-78
2023/01/06 02:27:19;;;;;;;130.30;78.55;;;3.60;99.90;;;;;;4900194;29;20119;-80
2023/01/06 02:42:48;;;;;;;128.27;74.90;;;3.30;99.90;;;;;;5117310;23;20391;-78
2023/01/06 02:45:26;;;;;;;123.13;71.65;;;3.40;99.90;;;;;;4927685;29;20055;-77
2023/01/06 02:48:33;;;;;;;123.25;75.70;;;3.30;99.90;;;;;;4939348;29;20067;-78
2023/01/06 02:51:42;;;;;;;113.43;71.78;;;3.20;99.90;;;;;;4907289;29;20063;-76
2023/01/06 02:54:25;;;;;;;118.00;69.35;;;3.40;99.90;;;;;;4938808;29;20066;-80
2023/01/06 02:57:08;;;;;;;126.18;72.88;;;3.50;99.90;;;;;;4941118;29;20055;-80
2023/01/06 03:00:52;;;;;;;123.65;72.25;;;3.60;99.90;;;;;;4930222;29;20767;-80
2023/01/06 03:03:22;;;;;;;135.75;80.53;;;3.70;99.90;;;;;;4941184;29;20066;-79
2023/01/06 03:05:56;;;;;;;;;;;3.50;99.90;;;;;;4939977;29;20050;-79
2023/01/06 03:08:33;;;;;;;163.80;89.38;;;3.40;99.90;;;;;;5342721;23;19918;-80
2023/01/06 03:11:36;;;;;;;151.93;83.47;;;3.30;99.90;;;;;;5651331;23;20034;-78
2023/01/06 03:24:53;;;;;;;132.05;78.07;;;3.50;99.90;;;;;;5357943;23;20044;-80
2023/01/06 03:27:24;;;;;;;133.90;76.78;;;3.40;99.90;;;;;;4922705;29;20043;-79
2023/01/06 03:30:08;;;;;;;133.02;75.72;;;3.10;99.90;;;;;;5279791;23;20047;-81
2023/01/06 03:33:46;;;;;;;129.82;78.65;;;3.10;99.90;;;;;;4949357;29;20111;-80
2023/01/06 03:37:04;;;;;;;128.35;77.43;;;3.30;99.90;;;;;;4943346;29;20047;-78
2023/01/06 03:40:07;;;;;;;119.13;74.75;;;3.50;99.90;;;;;;4902222;29;20514;-77
2023/01/06 03:46:15;;;;;;;131.90;79.70;;;3.50;99.90;;;;;;4934939;29;20067;-77
2023/01/06 03:48:43;;;;;;;133.85;79.93;;;3.40;99.90;;;;;;5173441;23;20055;-78
2023/01/06 03:51:45;;;;;;;135.82;81.72;;;3.40;99.90;;;;;;4939811;29;20096;-78
2023/01/06 03:54:56;;;;;;;142.63;81.32;;;3.10;99.90;;;;;;4903510;29;20139;-78
2023/01/06 03:59:07;;;;;;;127.90;75.70;;;3.20;99.90;;;;;;4909291;29;20064;-77
2023/01/06 04:01:42;;;;;;;123.90;75.70;;;3.30;99.90;;;;;;4920446;29;20055;-77
2023/01/06 04:04:09;;;;;;;126.82;75.50;;;3.20;99.90;;;;;;4920028;29;20485;-79
2023/01/06 04:06:44;;;;;;;119.30;73.82;;;3.30;99.90;;;;;;4902840;29;20048;-77
2023/01/06 04:10:32;;;;;;;120.05;73.35;;;3.20;99.90;;;;;;4868261;29;20064;-79
2023/01/06 04:13:04;;;;;;;122.90;72.07;;;3.30;99.90;;;;;;5033933;23;20066;-78
2023/01/06 04:15:35;;;;;;;117.03;71.45;;;3.40;99.90;;;;;;4906245;29;20048;-80
2023/01/06 04:18:02;;;;;;;121.57;75.10;;;3.40;99.90;;;;;;4921620;29;20058;-79
2023/01/06 04:21:00;;;;;;;134.02;78.60;;;3.30;99.90;;;;;;4937831;29;20099;-79
2023/01/06 04:23:32;;;;;;;132.93;77.63;;;3.30;99.90;;;;;;4936742;29;20044;-77
2023/01/06 04:26:23;;;;;;;133.82;78.78;;;3.10;99.90;;;;;;4922311;29;20074;-77
2023/01/06 04:35:37;;;;;;;124.18;73.90;;;2.80;99.90;;;;;;4995885;23;20051;-79
2023/01/06 04:43:03;;;;;;;134.50;73.65;;;2.90;99.90;;;;;;4865867;29;20082;-78
2023/01/06 04:45:30;;;;;;;136.88;78.00;;;2.70;99.90;;;;;;4864556;29;20129;-78
2023/01/06 04:47:58;;;;;;;122.40;76.45;;;2.80;99.90;;;;;;4880086;29;20053;-80
2023/01/06 04:54:01;;;;;;;137.77;76.60;;;2.90;99.90;;;;;;5033087;23;20058;-78
2023/01/06 04:56:28;;;;;;;141.13;80.88;;;2.90;99.90;;;;;;4902478;29;20112;-79
2023/01/06 04:58:57;;;;;;;139.95;81.03;;;2.90;99.90;;;;;;4919556;29;20044;-77
2023/01/06 05:01:25;;;;;;;129.82;75.78;;;2.80;99.90;;;;;;4903446;29;20099;-79
2023/01/06 05:03:53;;;;;;;135.45;77.50;;;2.80;99.90;;;;;;4920013;29;20120;-80
2023/01/06 05:06:36;;;;;;;129.00;75.55;;;2.80;99.90;;;;;;4903095;29;20999;-80
2023/01/06 05:09:09;;;;;;;133.93;72.90;;;2.80;99.90;;;;;;4903636;29;20044;-81
2023/01/06 05:11:37;;;;;;;129.50;72.28;;;2.90;99.90;;;;;;4888158;29;20491;-82
2023/01/06 05:14:15;;;;;;;129.40;75.65;;;2.90;99.90;;;;;;4904591;29;20055;-82
2023/01/06 05:17:52;;;;;;;139.05;77.55;;;2.60;99.90;;;;;;4888939;29;20033;-77
2023/01/06 05:20:27;;;;;;;139.90;74.13;;;2.50;99.90;;;;;;4920460;29;20059;-79
2023/01/06 05:23:32;;;;;;;133.95;74.70;;;2.60;99.90;;;;;;4917266;23;20546;-79
2023/01/06 05:26:01;;;;;;;152.48;82.40;;;2.80;99.90;;;;;;4919234;29;20385;-79
2023/01/06 05:29:25;;;;;;;173.32;82.88;;;2.80;99.90;;;;;;4904651;29;20067;-80
2023/01/06 05:31:52;;;;;;;158.93;78.68;;;2.80;99.90;;;;;;4903042;29;20052;-78
2023/01/06 05:34:22;;;;;;;161.82;83.57;;;2.80;99.90;;;;;;4903369;29;20051;-79
2023/01/06 05:36:49;;;;;;;157.25;78.47;;;2.50;99.90;;;;;;4903808;29;20044;-81
2023/01/06 05:39:16;;;;;;;145.60;78.50;;;2.40;99.90;;;;;;4933631;29;20044;-81
2023/01/06 05:41:49;;;;;;;147.88;76.32;;;2.50;99.90;;;;;;4943747;23;20044;-79
2023/01/06 05:44:50;;;;;;;142.15;74.82;;;2.80;99.90;;;;;;4917193;29;20051;-80
2023/01/06 05:47:56;;;;;;;122.13;67.78;;;3.00;99.90;;;;;;4866580;29;20515;-82
2023/01/06 05:53:43;;;;;;;161.38;74.97;;;3.00;99.90;;;;;;4934782;29;19935;-80
2023/01/06 05:56:13;;;;;;;162.52;79.07;;;2.90;99.90;;;;;;4923364;29;20044;-81
2023/01/06 05:58:46;;;;;;;144.15;71.43;;;2.90;99.90;;;;;;4922246;29;20063;-81
2023/01/06 06:01:33;;;;;;;118.57;61.55;;;2.90;99.90;;;;;;4921092;29;20452;-79
2023/01/06 06:04:06;;;;;;;232.95;109.50;;;2.80;99.90;;;;;;4756429;29;2163318;-74
2023/01/06 06:06:36;;;;;;;451.48;225.10;;;2.90;99.90;;;;;;4909262;29;20158;-74
2023/01/06 06:09:04;;;;;;;105.43;64.75;;;2.80;99.90;;;;;;4919303;29;20142;-72
2023/01/06 06:11:31;;;;;;;93.97;56.60;;;2.70;99.90;;;;;;4926341;29;20441;-75
2023/01/06 06:14:01;;;;;;;96.13;54.03;;;2.50;99.90;;;;;;4927605;29;20044;-73
2023/01/06 06:16:28;;;;;;;91.32;52.58;;;2.60;99.90;;;;;;4912934;29;20048;-79
2023/01/06 06:18:57;;;;;;;93.97;51.17;;;2.60;99.90;;;;;;4930738;29;20047;-81
2023/01/06 06:21:29;;;;;;;97.93;55.20;;;2.80;99.90;;;;;;4902290;29;20116;-74
2023/01/06 06:23:59;;;;;;;99.78;56.00;;;2.60;99.90;;;;;;4900891;29;20059;-76
2023/01/06 06:26:29;;;;;;;93.53;60.28;;;2.50;99.90;;;;;;4903115;29;20397;-75
2023/01/06 06:28:59;;;;;;;109.20;63.17;;;2.70;99.90;;;;;;4905057;29;20056;-73
2023/01/06 06:31:30;;;;;;;112.25;58.60;;;2.80;99.90;;;;;;4918299;29;20052;-75
2023/01/06 06:34:00;;;;;;;102.15;56.95;;;3.00;99.90;;;;;;4901821;29;20470;-75
2023/01/06 06:36:30;;;;;;;106.97;58.13;;;3.30;99.90;;;;;;4926586;23;20147;-76
2023/01/06 06:39:00;;;;;;;103.53;57.25;;;3.20;99.90;;;;;;4906087;29;20050;-76
2023/01/06 06:41:27;;;;;;;101.05;55.28;;;3.20;99.90;;;;;;4904206;29;20055;-73
2023/01/06 06:43:55;;;;;;;107.43;59.65;;;3.30;99.90;;;;;;4903681;29;20055;-76
2023/01/06 06:46:22;;;;;;;134.85;76.18;;;3.60;99.90;;;;;;4910691;29;20049;-74
2023/01/06 06:48:50;;;;;;;108.68;59.97;;;3.80;99.90;;;;;;4885442;29;20151;-77
2023/01/06 06:51:20;;;;;;;110.82;59.17;;;3.70;99.90;;;;;;4900263;29;20059;-75
2023/01/06 06:53:48;;;;;;;101.90;57.85;;;3.70;99.90;;;;;;4901462;29;20044;-78
2023/01/06 06:56:16;;;;;;;107.38;58.15;;;3.70;99.90;;;;;;4886173;29;20047;-77
2023/01/06 06:58:44;;;;;;;101.57;56.53;;;3.50;99.90;;;;;;4885570;29;20052;-75
2023/01/06 07:01:19;;;;;;;100.30;58.38;;;3.60;99.90;;;;;;4903277;29;20099;-75
2023/01/06 07:03:50;;;;;;;90.60;54.78;;;3.70;99.90;;;;;;4902359;29;20048;-75
2023/01/06 07:06:28;;;;;;;96.72;54.95;;;3.60;99.90;;;;;;4919911;29;20044;-75
2023/01/06 07:09:12;;;;;;;102.55;56.55;;;3.60;99.90;;;;;;4917654;29;20048;-74
2023/01/06 07:11:39;;;;;;;91.75;56.47;;;3.70;99.90;;;;;;4917587;29;20063;-72
2023/01/06 07:14:09;;;;;;;105.35;60.85;;;3.90;99.90;;;;;;4902200;29;20445;-73
2023/01/06 07:16:36;;;;;;;241.35;126.40;;;4.20;99.90;;;;;;4917088;29;20048;-72
2023/01/06 07:19:10;;;;;;;111.22;67.03;;;4.30;99.90;;;;;;4918837;29;20040;-74
2023/01/06 07:21:56;;;;;;;120.22;69.25;;;4.40;99.90;;;;;;4901192;29;20052;-74
2023/01/06 07:24:29;;;;;;;144.23;77.07;;;4.70;99.90;;;;;;4885111;29;20052;-79
2023/01/06 07:26:59;;;;;;;112.63;64.70;;;4.60;99.90;;;;;;4899693;29;20492;-73
2023/01/06 07:29:28;;;;;;;102.85;57.60;;;4.40;99.90;;;;;;4903359;29;20051;-71
2023/01/06 07:31:56;;;;;;;91.43;55.87;;;4.50;99.90;;;;;;4919922;29;20407;-73
2023/01/06 07:34:29;;;;;;;92.75;53.63;;;4.60;99.90;;;;;;4935170;29;20293;-77
2023/01/06 07:36:58;;;;;;;90.07;54.70;;;4.50;99.90;;;;;;4904078;29;20074;-71
2023/01/06 07:39:45;;;;;;;78.35;49.63;;;4.40;99.90;;;;;;4922494;29;20386;-79
2023/01/06 07:42:13;;;;;;;97.82;54.22;;;4.10;99.90;;;;;;4937201;29;20051;-79
2023/01/06 07:44:42;;;;;;;85.85;52.75;;;4.20;99.90;;;;;;4918998;29;20047;-73
2023/01/06 07:47:15;;;;;;;77.57;48.45;;;4.40;99.90;;;;;;4902398;29;20044;-75
2023/01/06 07:49:48;;;;;;;77.68;50.05;;;4.50;99.90;;;;;;4935648;29;20051;-75
2023/01/06 07:52:15;;;;;;;95.60;55.08;;;4.50;99.90;;;;;;4917948;29;20051;-79
2023/01/06 07:54:42;;;;;;;90.63;54.28;;;4.60;99.90;;;;;;4918020;29;20102;-73
2023/01/06 07:57:27;;;;;;;99.10;56.97;;;4.60;99.90;;;;;;4918533;29;20052;-77
2023/01/06 07:59:58;;;;;;;95.15;57.92;;;4.70;99.90;;;;;;4918694;29;20111;-73
2023/01/06 08:02:25;;;;;;;;;;;4.90;99.90;;;;;;4936809;29;20083;-78
2023/01/06 08:04:59;;;;;;;98.78;54.15;;;4.90;99.90;;;;;;4920067;29;19971;-76
2023/01/06 08:07:29;;;;;;;93.28;56.72;;;5.00;99.90;;;;;;4936170;29;20127;-78
2023/01/06 08:09:57;;;;;;;94.28;55.58;;;5.10;99.90;;;;;;4937427;29;20059;-76
2023/01/06 08:12:27;;;;;;;94.85;58.58;;;5.10;99.90;;;;;;4938151;29;20070;-78
2023/01/06 08:15:01;;;;;;;102.28;58.63;;;5.20;99.90;;;;;;4935427;29;20403;-77
2023/01/06 08:17:39;;;;;;;120.13;71.60;;;5.40;99.90;;;;;;4908980;29;20051;-74
2023/01/06 08:20:08;;;;;;;104.80;64.53;;;5.30;99.90;;;;;;4924250;29;20050;-73
2023/01/06 08:22:38;;;;;;;107.32;62.90;;;5.40;99.90;;;;;;4920552;29;20051;-79
2023/01/06 08:25:11;;;;;;;96.82;59.70;;;5.50;99.90;;;;;;4940396;29;20068;-75
2023/01/06 08:27:39;;;;;;;95.05;59.53;;;5.50;99.90;;;;;;4938915;29;20106;-71
2023/01/06 08:30:07;;;;;;;103.00;64.30;;;5.70;99.90;;;;;;4919276;29;20055;-75
2023/01/06 08:32:34;;;;;;;108.10;67.63;;;5.90;99.90;;;;;;4938152;29;20051;-75
2023/01/06 08:35:04;;;;;;;113.95;67.30;;;6.10;99.90;;;;;;4937240;29;20063;-72
2023/01/06 08:37:31;;;;;;;115.22;69.15;;;6.20;99.90;;;;;;4925184;23;20052;-72
2023/01/06 08:39:59;;;;;;;116.13;72.40;;;6.00;99.90;;;;;;4915285;29;20052;-74
2023/01/06 08:42:26;;;;;;;109.93;68.22;;;6.00;99.90;;;;;;4899920;29;20052;-77
2023/01/06 08:44:53;;;;;;;109.78;69.38;;;5.70;99.90;;;;;;4916963;29;20037;-72
2023/01/06 08:47:23;;;;;;;120.07;75.47;;;5.70;99.90;;;;;;4938392;23;20071;-74
2023/01/06 08:49:50;;;;;;;120.00;74.60;;;5.70;99.90;;;;;;4904083;29;20051;-76
2023/01/06 08:52:29;;;;;;;130.25;80.13;;;5.70;99.90;;;;;;4918081;29;20050;-72
2023/01/06 08:55:13;;;;;;;126.72;77.68;;;5.80;99.90;;;;;;4902843;29;20582;-73
2023/01/06 08:57:43;;;;;;;141.23;77.43;;;6.00;99.90;;;;;;4918689;29;20419;-79
2023/01/06 09:00:15;;;;;;;147.10;84.63;;;6.20;99.90;;;;;;4919052;29;20555;-73
2023/01/06 09:02:45;;;;;;;147.05;87.78;;;6.40;99.90;;;;;;4890477;23;20126;-73
2023/01/06 09:05:13;;;;;;;144.23;90.63;;;6.50;99.90;;;;;;4882002;29;20132;-72
2023/01/06 09:07:40;;;;;;;145.15;89.97;;;6.60;99.90;;;;;;4897024;29;20032;-78
2023/01/06 09:10:10;;;;;;;142.63;85.72;;;6.80;99.90;;;;;;4905097;29;20088;-71
2023/01/06 09:12:38;;;;;;;134.65;79.60;;;7.10;99.90;;;;;;4896391;29;20048;-76
2023/01/06 09:15:06;;;;;;;117.20;73.70;;;7.30;99.90;;;;;;4906660;29;20135;-75
2023/01/06 09:17:33;;;;;;;119.15;71.30;;;7.40;99.90;;;;;;4905195;29;20047;-73
2023/01/06 09:20:00;;;;;;;121.70;76.22;;;7.30;99.90;;;;;;4900305;29;20088;-71
2023/01/06 09:22:27;;;;;;;123.00;79.35;;;7.30;99.90;;;;;;4917836;29;20048;-72
2023/01/06 09:25:00;;;;;;;178.80;105.55;;;7.60;99.90;;;;;;4901301;29;20056;-72
2023/01/06 09:27:30;;;;;;;129.57;83.43;;;8.20;99.90;;;;;;4901815;29;20523;-73
2023/01/06 09:29:59;;;;;;;125.63;77.05;;;8.10;99.90;;;;;;4917873;29;20131;-73
2023/01/06 09:32:27;;;;;;;113.07;72.18;;;8.10;99.90;;;;;;4902543;29;20079;-73
2023/01/06 09:34:54;;;;;;;107.82;71.05;;;8.00;99.90;;;;;;4920123;29;20135;-73
2023/01/06 09:37:22;;;;;;;110.70;71.22;;;7.90;99.90;;;;;;4903164;29;20064;-73
2023/01/06 09:39:50;;;;;;;109.78;70.47;;;7.80;99.90;;;;;;4903114;29;20108;-73
2023/01/06 09:42:47;;;;;;;101.75;65.90;;;7.90;99.90;;;;;;4903290;29;20151;-72
2023/01/06 09:45:36;;;;;;;101.63;63.95;;;7.90;99.90;;;;;;4879391;29;20056;-77
2023/01/06 09:48:11;;;;;;;101.75;59.78;;;8.10;99.90;;;;;;4902376;29;20059;-74
2023/01/06 09:50:46;;;;;;;89.32;58.25;;;8.30;99.90;;;;;;4904257;29;20397;-74
2023/01/06 09:53:24;;;;;;;87.63;57.20;;;8.40;99.90;;;;;;4901674;29;20107;-76
2023/01/06 09:56:04;;;;;;;85.15;54.42;;;8.40;99.90;;;;;;4914061;29;20153;-77
2023/01/06 09:58:39;;;;;;;81.18;51.13;;;8.80;99.90;;;;;;4900005;29;20049;-78
2023/01/06 10:01:10;;;;;;;85.90;53.70;;;9.00;99.90;;;;;;4906604;29;20045;-77
2023/01/06 10:03:47;;;;;;;91.63;54.45;;;9.40;99.90;;;;;;4876220;29;20073;-71
2023/01/06 10:06:26;;;;;;;83.10;53.45;;;9.50;99.90;;;;;;4875975;29;20080;-73
2023/01/06 10:09:15;;;;;;;76.65;50.38;;;9.40;99.90;;;;;;4866871;29;20113;-77
2023/01/06 10:12:11;;;;;;;82.78;53.58;;;9.10;99.90;;;;;;4871448;29;20056;-73
2023/01/06 10:15:14;;;;;;;85.35;50.38;;;9.10;99.90;;;;;;4902680;23;20060;-73
2023/01/06 10:18:25;;;;;;;98.95;51.58;;;9.50;99.90;;;;;;4915497;29;20052;-73
2023/01/06 10:21:24;;;;;;;80.82;47.60;;;9.70;99.90;;;;;;4923637;29;20044;-74
2023/01/06 10:24:17;;;;;;;74.68;43.08;;;9.90;99.90;;;;;;4922076;29;20099;-73
2023/01/06 10:27:00;;;;;;;76.72;42.42;;;9.90;99.90;;;;;;4901546;29;20407;-72
2023/01/06 10:29:33;;;;;;;72.47;43.55;;;10.30;99.90;;;;;;4925309;23;20135;-73
2023/01/06 10:32:02;;;;;;;73.68;43.05;;;10.60;99.90;;;;;;4938461;29;20122;-74
2023/01/06 10:34:34;;;;;;;72.60;43.47;;;10.50;99.90;;;;;;4964184;23;20074;-75
2023/01/06 10:37:09;;;;;;;76.10;46.40;;;10.40;99.90;;;;;;4957290;28;20043;-72
2023/01/06 10:39:49;;;;;;;80.80;49.28;;;10.60;99.90;;;;;;4947034;28;20042;-72
2023/01/06 10:45:15;;;;;;;82.40;50.35;;;11.20;99.90;;;;;;4938937;29;20054;-77
2023/01/06 10:47:51;;;;;;;80.40;49.78;;;11.20;99.90;;;;;;4938340;29;20063;-76
2023/01/06 10:50:20;;;;;;;79.88;49.72;;;11.30;99.90;;;;;;4939558;28;20114;-74
2023/01/06 10:52:53;;;;;;;78.80;48.88;;;11.70;99.90;;;;;;4959762;28;20110;-74
2023/01/06 10:55:58;;;;;;;75.43;49.33;;;12.10;99.90;;;;;;4943193;28;20055;-77
2023/01/06 10:59:02;;;;;;;77.30;52.70;;;12.20;99.90;;;;;;4903853;29;20056;-71
2023/01/06 11:01:48;;;;;;;76.30;52.13;;;11.80;99.90;;;;;;4923912;28;20055;-74
2023/01/06 11:07:27;;;;;;;92.35;57.28;;;12.20;99.90;;;;;;4931114;28;20075;-71
2023/01/06 11:09:59;;;;;;;156.50;97.07;;;12.50;99.90;;;;;;4943070;28;20129;-71
2023/01/06 11:13:00;;;;;;;93.80;60.13;;;12.90;99.90;;;;;;4935060;28;20042;-70
2023/01/06 11:15:41;;;;;;;85.70;52.72;;;13.40;99.90;;;;;;4932565;28;20577;-72
2023/01/06 11:18:42;;;;;;;82.38;52.50;;;14.00;99.70;;;;;;4927024;28;20066;-73
2023/01/06 11:21:15;;;;;;;82.82;53.25;;;14.50;97.70;;;;;;4909098;29;20130;-72
2023/01/06 11:23:47;;;;;;;81.95;50.45;;;15.00;96.80;;;;;;4955240;29;20047;-71
2023/01/06 11:26:19;;;;;;;97.63;60.40;;;15.10;96.20;;;;;;4933360;28;20105;-71
2023/01/06 11:29:32;;;;;;;125.55;76.80;;;15.40;95.40;;;;;;4940372;28;20043;-68
2023/01/06 11:32:13;;;;;;;102.85;65.18;;;15.50;95.60;;;;;;4929262;28;20040;-71
2023/01/06 11:35:03;;;;;;;82.35;53.17;;;16.20;94.70;;;;;;4930299;28;20051;-69
2023/01/06 11:37:40;;;;;;;78.45;48.28;;;16.10;92.40;;;;;;4921672;29;20436;-69
2023/01/06 11:40:20;;;;;;;74.30;48.80;;;16.20;91.90;;;;;;4904015;29;20503;-69
2023/01/06 11:43:11;;;;;;;79.45;50.45;;;16.30;91.20;;;;;;4904278;23;20396;-70
2023/01/06 11:45:56;;;;;;;75.40;49.35;;;15.90;91.10;;;;;;4922568;29;20053;-74
2023/01/06 11:48:35;;;;;;;73.03;49.65;;;15.60;92.30;;;;;;4868139;29;20049;-72
2023/01/06 11:51:08;;;;;;;74.18;48.25;;;15.60;92.10;;;;;;4879057;29;20144;-73
2023/01/06 11:54:05;;;;;;;74.57;49.97;;;15.20;92.50;;;;;;4885630;29;20629;-70
2023/01/06 11:56:56;;;;;;;82.07;50.13;;;15.40;93.50;;;;;;4911415;23;20099;-70
2023/01/06 11:59:24;;;;;;;82.40;47.35;;;15.60;92.50;;;;;;4932418;29;20052;-71
2023/01/06 12:02:01;;;;;;;76.57;48.53;;;16.10;91.60;;;;;;4932596;29;20055;-71
2023/01/06 12:04:47;;;;;;;69.55;46.25;;;16.50;90.60;;;;;;4915795;29;20127;-71
2023/01/06 12:07:51;;;;;;;68.00;45.40;;;16.40;87.20;;;;;;4928530;29;20040;-71
2023/01/06 12:10:27;;;;;;;62.45;39.65;;;16.30;86.80;;;;;;4912690;29;20064;-70
2023/01/06 12:12:54;;;;;;;62.08;40.15;;;16.60;85.70;;;;;;4881434;29;20402;-71
2023/01/06 12:15:38;;;;;;;63.60;39.67;;;16.80;86.50;;;;;;4899316;29;20076;-72
2023/01/06 12:18:19;;;;;;;51.67;33.58;;;17.00;83.60;;;;;;4913353;23;20060;-71
2023/01/06 12:20:54;;;;;;;43.53;28.27;;;16.60;82.10;;;;;;4900205;29;20052;-71
2023/01/06 12:23:43;;;;;;;49.20;30.48;;;16.00;82.80;;;;;;4915770;29;20048;-72
2023/01/06 12:26:26;;;;;;;49.15;30.38;;;15.90;85.20;;;;;;4909031;29;20059;-68
2023/01/06 12:28:59;;;;;;;47.15;31.17;;;15.60;85.20;;;;;;4934631;29;20106;-69
2023/01/06 12:31:46;;;;;;;44.75;28.88;;;15.60;86.80;;;;;;4903044;29;20462;-70
2023/01/06 12:34:52;;;;;;;44.38;29.20;;;15.50;85.40;;;;;;4916370;29;20493;-71
2023/01/06 12:37:36;;;;;;;146.75;85.53;;;15.10;84.60;;;;;;4900126;29;20063;-69
2023/01/06 12:40:18;;;;;;;125.85;77.50;;;14.80;88.80;;;;;;4911653;29;20115;-72
2023/01/06 12:43:01;;;;;;;55.65;37.92;;;14.70;90.40;;;;;;4911789;29;20051;-70
2023/01/06 12:45:50;;;;;;;56.70;32.67;;;14.40;90.60;;;;;;4910970;29;20055;-72
2023/01/06 12:48:48;;;;;;;44.58;29.13;;;14.20;90.70;;;;;;4906296;23;22030;-73
2023/01/06 12:51:56;;;;;;;41.83;24.73;;;14.00;90.10;;;;;;4926371;29;20039;-74
2023/01/06 12:54:36;;;;;;;37.20;22.63;;;13.90;89.50;;;;;;4917642;29;20119;-72
2023/01/06 12:57:53;;;;;;;42.00;24.65;;;14.20;89.40;;;;;;4904679;29;20064;-73
2023/01/06 13:04:26;;;;;;;34.75;22.02;;;15.90;86.50;;;;;;4931909;29;20043;-73
2023/01/06 13:07:43;;;;;;;38.35;23.90;;;21.60;67.30;;;;;;4949090;29;20119;-74
2023/01/06 13:10:32;;;;;;;35.30;24.05;;;24.30;58.50;;;;;;4928239;29;20121;-72
2023/01/06 13:14:01;;;;;;;31.60;21.60;;;25.30;54.40;;;;;;4945444;28;20047;-74
2023/01/06 13:17:11;;;;;;;34.25;21.20;;;24.60;51.30;;;;;;4922693;29;20045;-83
2023/01/06 13:19:57;;;;;;;35.28;22.92;;;24.60;52.30;;;;;;4927306;29;20059;-70
2023/01/06 13:23:05;;;;;;;33.70;24.70;;;24.60;51.30;;;;;;4940200;29;20047;-72
2023/01/06 13:26:10;;;;;;;25.75;18.40;;;24.10;51.70;;;;;;4922493;29;20411;-71
2023/01/06 13:29:02;;;;;;;21.88;16.08;;;24.00;51.30;;;;;;4920460;29;20151;-72
2023/01/06 13:32:01;;;;;;;21.65;16.08;;;23.10;51.90;;;;;;4955613;28;20078;-72
2023/01/06 13:35:10;;;;;;;26.05;17.83;;;23.50;51.70;;;;;;4943074;29;20396;-70
2023/01/06 13:38:01;;;;;;;20.25;14.70;;;24.90;49.50;;;;;;4955568;28;20475;-72
2023/01/06 13:40:43;;;;;;;18.55;13.32;;;24.50;49.50;;;;;;4955590;29;20047;-72
2023/01/06 13:43:21;;;;;;;21.05;12.13;;;25.00;48.30;;;;;;4940129;28;20059;-74
2023/01/06 13:45:57;;;;;;;15.75;10.20;;;25.10;48.00;;;;;;4959891;23;20525;-72
2023/01/06 13:48:31;;;;;;;20.20;15.73;;;25.20;47.20;;;;;;4930626;23;20047;-72
2023/01/06 13:51:06;;;;;;;19.13;12.05;;;25.60;47.10;;;;;;4923345;29;20055;-72
2023/01/06 13:53:39;;;;;;;17.63;12.20;;;23.70;47.60;;;;;;4904166;29;20059;-71
2023/01/06 13:56:11;;;;;;;17.95;11.95;;;22.70;48.90;;;;;;4936026;23;20117;-75
2023/01/06 13:58:43;;;;;;;18.17;12.50;;;21.50;51.40;;;;;;4933185;29;20048;-70
2023/01/06 14:01:26;;;;;;;16.83;11.57;;;20.10;52.80;;;;;;4923445;29;20087;-74
2023/01/06 14:04:41;;;;;;;15.85;10.68;;;18.00;56.90;;;;;;4939460;29;20051;-73
2023/01/06 14:07:15;;;;;;;16.27;10.10;;;16.80;59.00;;;;;;4925059;29;20123;-75
2023/01/06 14:10:24;;;;;;;15.57;11.60;;;16.80;58.80;;;;;;4941892;28;20048;-76
2023/01/06 14:13:38;;;;;;;14.75;9.40;;;17.60;58.10;;;;;;4924382;29;20052;-73
2023/01/06 14:16:22;;;;;;;14.73;9.35;;;15.80;61.50;;;;;;4932977;29;20055;-72
2023/01/06 14:19:21;;;;;;;14.17;9.30;;;15.00;63.90;;;;;;4918147;29;20048;-72
2023/01/06 14:22:33;;;;;;;16.50;9.38;;;14.60;65.20;;;;;;4938484;29;20070;-72
2023/01/06 14:25:07;;;;;;;16.52;9.95;;;15.10;65.90;;;;;;4951917;29;20536;-73
2023/01/06 14:28:34;;;;;;;20.15;10.13;;;17.60;60.40;;;;;;4927297;29;20055;-71
2023/01/06 14:31:40;;;;;;;18.23;9.40;;;19.20;57.10;;;;;;5122396;23;20107;-72
2023/01/06 14:37:27;;;;;;;22.52;13.93;;;19.90;55.20;;;;;;4933535;23;20422;-74
2023/01/06 14:40:29;;;;;;;19.83;14.25;;;18.70;57.00;;;;;;4885969;29;20056;-73
2023/01/06 14:43:04;;;;;;;26.80;17.45;;;16.20;61.30;;;;;;4918046;29;20043;-73
2023/01/06 14:45:39;;;;;;;63.17;41.55;;;15.20;65.00;;;;;;4886793;29;20039;-71
2023/01/06 14:48:29;;;;;;;66.32;41.53;;;14.70;67.50;;;;;;4918170;29;20428;-73
2023/01/06 14:51:03;;;;;;;29.10;19.92;;;14.50;68.30;;;;;;4885997;29;20048;-72
2023/01/06 14:54:25;;;;;;;38.17;24.90;;;14.00;69.20;;;;;;4900525;24;20378;-71
2023/01/06 14:57:27;;;;;;;45.85;30.05;;;13.60;70.10;;;;;;4908672;29;20568;-71
2023/01/06 15:00:34;;;;;;;70.97;44.78;;;13.40;71.60;;;;;;4935002;29;20199;-70
2023/01/06 15:03:36;;;;;;;46.95;30.38;;;13.40;71.90;;;;;;4927756;29;20055;-72
2023/01/06 15:10:37;;;;;;;;;;;;;;;;;;;;;
2023/01/06 15:13:30;;;;;;;22.95;12.07;;;12.90;72.80;;;;;;4925649;29;20055;-73
2023/01/06 15:17:09;;;;;;;16.15;11.32;;;12.80;73.10;;;;;;4876750;29;20527;-76
2023/01/06 15:20:17;;;;;;;16.13;10.57;;;12.70;73.30;;;;;;4863764;29;20056;-73
2023/01/06 15:23:01;;;;;;;11.43;7.78;;;12.60;73.60;;;;;;4899118;23;20143;-73
2023/01/06 15:25:55;;;;;;;15.18;9.27;;;12.70;73.10;;;;;;4919841;29;20050;-73
2023/01/06 15:29:07;;;;;;;16.23;10.20;;;12.60;73.60;;;;;;4921285;29;20039;-73
2023/01/06 15:31:47;;;;;;;23.30;14.00;;;12.50;74.60;;;;;;4930391;29;20058;-72
2023/01/06 15:34:26;;;;;;;44.25;27.25;;;12.50;74.30;;;;;;4933702;29;20412;-73
2023/01/06 15:37:25;;;;;;;34.35;20.55;;;12.50;76.20;;;;;;4933749;29;20436;-72
2023/01/06 15:40:17;;;;;;;26.17;16.13;;;12.20;76.80;;;;;;5152028;23;20074;-72
2023/01/06 15:43:23;;;;;;;21.55;13.82;;;12.00;77.70;;;;;;4919555;29;20048;-72
2023/01/06 15:46:05;;;;;;;32.88;19.13;;;11.90;77.90;;;;;;4904151;29;20529;-72
2023/01/06 15:48:45;;;;;;;28.00;18.30;;;11.80;78.10;;;;;;4906276;29;20055;-74
2023/01/06 15:51:15;;;;;;;28.83;17.98;;;11.80;78.20;;;;;;4903726;29;20070;-74